sensor_id;sensor_type;location;lat;lon;timestamp;temperature;humidity
68556;HTU21D;55544;51.032;5.866;2023-07-30T00:02:21;18.32;72.28
68556;HTU21D;55544;51.032;5.866;2023-07-30T00:04:47;18.29;72.45
68556;HTU21D;55544;51.032;5.866;2023-07-30T00:07:13;18.28;72.65
68556;HTU21D;55544;51.032;5.866;2023-07-30T00:09:39;18.35;72.60
68556;HTU21D;55544;51.032;5.866;2023-07-30T00:12:06;18.32;72.87
68556;HTU21D;55544;51.032;5.866;2023-07-30T00:14:32;18.37;72.83
68556;HTU21D;55544;51.032;5.866;2023-07-30T00:16:58;18.40;72.63
68556;HTU21D;55544;51.032;5.866;2023-07-30T00:19:24;18.40;72.55
68556;HTU21D;55544;51.032;5.866;2023-07-30T00:21:50;18.44;72.43
68556;HTU21D;55544;51.032;5.866;2023-07-30T00:24:15;18.47;72.52
68556;HTU21D;55544;51.032;5.866;2023-07-30T00:26:41;18.44;72.61
68556;HTU21D;55544;51.032;5.866;2023-07-30T00:29:07;18.49;72.63
68556;HTU21D;55544;51.032;5.866;2023-07-30T00:31:32;18.48;72.80
68556;HTU21D;55544;51.032;5.866;2023-07-30T00:33:58;18.54;72.90
68556;HTU21D;55544;51.032;5.866;2023-07-30T00:36:24;18.58;72.92
68556;HTU21D;55544;51.032;5.866;2023-07-30T00:38:49;18.61;72.98
68556;HTU21D;55544;51.032;5.866;2023-07-30T00:41:15;18.63;73.09
68556;HTU21D;55544;51.032;5.866;2023-07-30T00:43:41;18.67;72.91
68556;HTU21D;55544;51.032;5.866;2023-07-30T00:46:08;18.64;73.04
68556;HTU21D;55544;51.032;5.866;2023-07-30T00:48:34;18.68;73.13
68556;HTU21D;55544;51.032;5.866;2023-07-30T00:51:00;18.66;73.19
68556;HTU21D;55544;51.032;5.866;2023-07-30T00:53:29;18.66;73.13
68556;HTU21D;55544;51.032;5.866;2023-07-30T00:55:56;18.66;72.90
68556;HTU21D;55544;51.032;5.866;2023-07-30T00:58:23;18.66;72.92
68556;HTU21D;55544;51.032;5.866;2023-07-30T01:00:50;18.62;73.06
68556;HTU21D;55544;51.032;5.866;2023-07-30T01:03:17;18.64;72.96
68556;HTU21D;55544;51.032;5.866;2023-07-30T01:05:44;18.62;73.03
68556;HTU21D;55544;51.032;5.866;2023-07-30T01:08:10;18.62;72.99
68556;HTU21D;55544;51.032;5.866;2023-07-30T01:10:38;18.65;72.71
68556;HTU21D;55544;51.032;5.866;2023-07-30T01:13:09;18.65;72.87
68556;HTU21D;55544;51.032;5.866;2023-07-30T01:15:36;18.64;73.00
68556;HTU21D;55544;51.032;5.866;2023-07-30T01:18:03;18.58;73.25
68556;HTU21D;55544;51.032;5.866;2023-07-30T01:20:32;18.56;73.44
68556;HTU21D;55544;51.032;5.866;2023-07-30T01:22:59;18.55;73.38
68556;HTU21D;55544;51.032;5.866;2023-07-30T01:25:28;18.55;73.28
68556;HTU21D;55544;51.032;5.866;2023-07-30T01:27:59;18.55;73.07
68556;HTU21D;55544;51.032;5.866;2023-07-30T01:30:36;18.48;73.27
68556;HTU21D;55544;51.032;5.866;2023-07-30T01:33:05;18.48;73.13
68556;HTU21D;55544;51.032;5.866;2023-07-30T01:35:32;18.39;73.32
68556;HTU21D;55544;51.032;5.866;2023-07-30T01:37:58;18.35;73.29
68556;HTU21D;55544;51.032;5.866;2023-07-30T01:40:24;18.29;73.35
68556;HTU21D;55544;51.032;5.866;2023-07-30T01:42:50;18.20;73.73
68556;HTU21D;55544;51.032;5.866;2023-07-30T01:45:17;18.13;73.88
68556;HTU21D;55544;51.032;5.866;2023-07-30T01:47:43;18.09;74.08
68556;HTU21D;55544;51.032;5.866;2023-07-30T01:50:09;18.02;74.37
68556;HTU21D;55544;51.032;5.866;2023-07-30T01:52:34;17.98;74.47
68556;HTU21D;55544;51.032;5.866;2023-07-30T01:55:00;17.93;74.58
68556;HTU21D;55544;51.032;5.866;2023-07-30T01:57:27;17.90;74.76
68556;HTU21D;55544;51.032;5.866;2023-07-30T01:59:52;17.83;74.92
68556;HTU21D;55544;51.032;5.866;2023-07-30T02:02:18;17.81;75.11
68556;HTU21D;55544;51.032;5.866;2023-07-30T02:04:44;17.80;75.21
68556;HTU21D;55544;51.032;5.866;2023-07-30T02:07:10;17.75;75.30
68556;HTU21D;55544;51.032;5.866;2023-07-30T02:09:35;17.74;75.55
68556;HTU21D;55544;51.032;5.866;2023-07-30T02:12:01;17.72;75.55
68556;HTU21D;55544;51.032;5.866;2023-07-30T02:14:27;17.67;75.79
68556;HTU21D;55544;51.032;5.866;2023-07-30T02:16:58;17.69;75.91
68556;HTU21D;55544;51.032;5.866;2023-07-30T02:19:24;17.68;76.20
68556;HTU21D;55544;51.032;5.866;2023-07-30T02:21:50;17.65;76.53
68556;HTU21D;55544;51.032;5.866;2023-07-30T02:24:15;17.67;76.58
68556;HTU21D;55544;51.032;5.866;2023-07-30T02:26:41;17.70;76.67
68556;HTU21D;55544;51.032;5.866;2023-07-30T02:29:07;17.75;76.57
68556;HTU21D;55544;51.032;5.866;2023-07-30T02:31:33;17.74;76.56
68556;HTU21D;55544;51.032;5.866;2023-07-30T02:33:59;17.74;76.55
68556;HTU21D;55544;51.032;5.866;2023-07-30T02:36:24;17.67;76.28
68556;HTU21D;55544;51.032;5.866;2023-07-30T02:38:50;17.66;76.05
68556;HTU21D;55544;51.032;5.866;2023-07-30T02:41:17;17.65;76.07
68556;HTU21D;55544;51.032;5.866;2023-07-30T02:43:43;17.65;76.00
68556;HTU21D;55544;51.032;5.866;2023-07-30T02:46:09;17.67;75.83
68556;HTU21D;55544;51.032;5.866;2023-07-30T02:48:34;17.67;75.87
68556;HTU21D;55544;51.032;5.866;2023-07-30T02:51:00;17.68;75.92
68556;HTU21D;55544;51.032;5.866;2023-07-30T02:53:26;17.68;75.95
68556;HTU21D;55544;51.032;5.866;2023-07-30T02:55:51;17.67;75.97
68556;HTU21D;55544;51.032;5.866;2023-07-30T02:58:18;17.69;76.03
68556;HTU21D;55544;51.032;5.866;2023-07-30T03:00:43;17.68;76.21
68556;HTU21D;55544;51.032;5.866;2023-07-30T03:03:09;17.70;76.24
68556;HTU21D;55544;51.032;5.866;2023-07-30T03:05:35;17.74;76.23
68556;HTU21D;55544;51.032;5.866;2023-07-30T03:08:01;17.74;76.58
68556;HTU21D;55544;51.032;5.866;2023-07-30T03:10:26;17.77;76.91
68556;HTU21D;55544;51.032;5.866;2023-07-30T03:12:52;17.81;77.29
68556;HTU21D;55544;51.032;5.866;2023-07-30T03:15:18;17.87;77.48
68556;HTU21D;55544;51.032;5.866;2023-07-30T03:17:44;17.92;77.60
68556;HTU21D;55544;51.032;5.866;2023-07-30T03:20:09;17.94;77.87
68556;HTU21D;55544;51.032;5.866;2023-07-30T03:22:35;17.92;77.95
68556;HTU21D;55544;51.032;5.866;2023-07-30T03:25:01;17.83;78.30
68556;HTU21D;55544;51.032;5.866;2023-07-30T03:27:27;17.75;79.09
68556;HTU21D;55544;51.032;5.866;2023-07-30T03:29:52;17.73;79.02
68556;HTU21D;55544;51.032;5.866;2023-07-30T03:32:19;17.60;79.44
68556;HTU21D;55544;51.032;5.866;2023-07-30T03:34:45;17.54;79.87
68556;HTU21D;55544;51.032;5.866;2023-07-30T03:37:10;17.48;80.20
68556;HTU21D;55544;51.032;5.866;2023-07-30T03:39:36;17.45;80.19
68556;HTU21D;55544;51.032;5.866;2023-07-30T03:42:02;17.40;79.98
68556;HTU21D;55544;51.032;5.866;2023-07-30T03:44:27;17.32;80.18
68556;HTU21D;55544;51.032;5.866;2023-07-30T03:46:53;17.22;80.15
68556;HTU21D;55544;51.032;5.866;2023-07-30T03:49:19;17.16;80.47
68556;HTU21D;55544;51.032;5.866;2023-07-30T03:51:45;17.15;80.37
68556;HTU21D;55544;51.032;5.866;2023-07-30T03:54:10;17.13;80.41
68556;HTU21D;55544;51.032;5.866;2023-07-30T03:56:36;17.09;80.25
68556;HTU21D;55544;51.032;5.866;2023-07-30T03:59:02;17.07;79.94
68556;HTU21D;55544;51.032;5.866;2023-07-30T04:01:28;17.03;79.43
68556;HTU21D;55544;51.032;5.866;2023-07-30T04:03:56;16.99;78.82
68556;HTU21D;55544;51.032;5.866;2023-07-30T04:06:21;16.98;78.71
68556;HTU21D;55544;51.032;5.866;2023-07-30T04:08:47;16.95;78.31
68556;HTU21D;55544;51.032;5.866;2023-07-30T04:11:13;16.92;78.20
68556;HTU21D;55544;51.032;5.866;2023-07-30T04:13:38;16.86;78.49
68556;HTU21D;55544;51.032;5.866;2023-07-30T04:16:07;16.86;78.13
68556;HTU21D;55544;51.032;5.866;2023-07-30T04:18:32;16.87;77.91
68556;HTU21D;55544;51.032;5.866;2023-07-30T04:20:58;16.82;78.29
68556;HTU21D;55544;51.032;5.866;2023-07-30T04:23:24;16.82;78.66
68556;HTU21D;55544;51.032;5.866;2023-07-30T04:25:50;16.88;78.86
68556;HTU21D;55544;51.032;5.866;2023-07-30T04:28:16;16.90;79.01
68556;HTU21D;55544;51.032;5.866;2023-07-30T04:30:42;16.94;78.91
68556;HTU21D;55544;51.032;5.866;2023-07-30T04:33:08;16.95;78.71
68556;HTU21D;55544;51.032;5.866;2023-07-30T04:35:36;16.95;78.49
68556;HTU21D;55544;51.032;5.866;2023-07-30T04:38:02;16.91;78.78
68556;HTU21D;55544;51.032;5.866;2023-07-30T04:40:29;16.91;78.72
68556;HTU21D;55544;51.032;5.866;2023-07-30T04:42:55;16.92;78.75
68556;HTU21D;55544;51.032;5.866;2023-07-30T04:45:21;16.91;78.51
68556;HTU21D;55544;51.032;5.866;2023-07-30T04:47:48;16.99;78.47
68556;HTU21D;55544;51.032;5.866;2023-07-30T04:50:14;16.93;78.65
68556;HTU21D;55544;51.032;5.866;2023-07-30T04:52:39;16.99;78.31
68556;HTU21D;55544;51.032;5.866;2023-07-30T04:55:05;16.92;78.35
68556;HTU21D;55544;51.032;5.866;2023-07-30T04:57:31;16.92;78.42
68556;HTU21D;55544;51.032;5.866;2023-07-30T04:59:57;16.89;78.63
68556;HTU21D;55544;51.032;5.866;2023-07-30T05:02:23;16.86;78.77
68556;HTU21D;55544;51.032;5.866;2023-07-30T05:04:48;16.90;78.96
68556;HTU21D;55544;51.032;5.866;2023-07-30T05:07:14;16.87;79.46
68556;HTU21D;55544;51.032;5.866;2023-07-30T05:09:40;16.89;79.29
68556;HTU21D;55544;51.032;5.866;2023-07-30T05:12:06;16.93;79.21
68556;HTU21D;55544;51.032;5.866;2023-07-30T05:14:31;16.95;79.11
68556;HTU21D;55544;51.032;5.866;2023-07-30T05:16:57;17.00;78.98
68556;HTU21D;55544;51.032;5.866;2023-07-30T05:19:23;17.04;78.63
68556;HTU21D;55544;51.032;5.866;2023-07-30T05:21:48;17.04;78.66
68556;HTU21D;55544;51.032;5.866;2023-07-30T05:24:14;17.04;78.91
68556;HTU21D;55544;51.032;5.866;2023-07-30T05:26:40;17.05;78.63
68556;HTU21D;55544;51.032;5.866;2023-07-30T05:29:05;16.99;78.76
68556;HTU21D;55544;51.032;5.866;2023-07-30T05:31:31;17.05;78.55
68556;HTU21D;55544;51.032;5.866;2023-07-30T05:33:57;16.99;78.99
68556;HTU21D;55544;51.032;5.866;2023-07-30T05:36:22;17.02;79.30
68556;HTU21D;55544;51.032;5.866;2023-07-30T05:38:48;17.06;78.87
68556;HTU21D;55544;51.032;5.866;2023-07-30T05:41:15;17.08;78.75
68556;HTU21D;55544;51.032;5.866;2023-07-30T05:43:40;17.11;78.93
68556;HTU21D;55544;51.032;5.866;2023-07-30T05:46:07;17.11;78.95
68556;HTU21D;55544;51.032;5.866;2023-07-30T05:48:33;17.09;79.26
68556;HTU21D;55544;51.032;5.866;2023-07-30T05:50:59;17.09;79.43
68556;HTU21D;55544;51.032;5.866;2023-07-30T05:53:24;17.09;79.68
68556;HTU21D;55544;51.032;5.866;2023-07-30T05:55:50;17.07;79.58
68556;HTU21D;55544;51.032;5.866;2023-07-30T05:58:16;17.08;79.85
68556;HTU21D;55544;51.032;5.866;2023-07-30T06:00:41;17.13;79.58
68556;HTU21D;55544;51.032;5.866;2023-07-30T06:03:07;17.08;79.83
68556;HTU21D;55544;51.032;5.866;2023-07-30T06:05:41;17.04;80.12
68556;HTU21D;55544;51.032;5.866;2023-07-30T06:08:08;17.16;80.12
68556;HTU21D;55544;51.032;5.866;2023-07-30T06:10:37;17.18;79.80
68556;HTU21D;55544;51.032;5.866;2023-07-30T06:13:04;17.22;79.91
68556;HTU21D;55544;51.032;5.866;2023-07-30T06:15:31;17.22;80.33
68556;HTU21D;55544;51.032;5.866;2023-07-30T06:17:57;17.32;80.20
68556;HTU21D;55544;51.032;5.866;2023-07-30T06:20:23;17.28;80.20
68556;HTU21D;55544;51.032;5.866;2023-07-30T06:22:49;17.32;80.24
68556;HTU21D;55544;51.032;5.866;2023-07-30T06:25:15;17.38;80.34
68556;HTU21D;55544;51.032;5.866;2023-07-30T06:27:40;17.45;80.17
68556;HTU21D;55544;51.032;5.866;2023-07-30T06:30:06;17.43;79.80
68556;HTU21D;55544;51.032;5.866;2023-07-30T06:32:32;17.49;80.01
68556;HTU21D;55544;51.032;5.866;2023-07-30T06:34:58;17.56;79.96
68556;HTU21D;55544;51.032;5.866;2023-07-30T06:37:23;17.56;80.06
68556;HTU21D;55544;51.032;5.866;2023-07-30T06:39:49;17.56;79.85
68556;HTU21D;55544;51.032;5.866;2023-07-30T06:42:15;17.53;80.38
68556;HTU21D;55544;51.032;5.866;2023-07-30T06:44:40;17.53;80.53
68556;HTU21D;55544;51.032;5.866;2023-07-30T06:47:06;17.56;80.12
68556;HTU21D;55544;51.032;5.866;2023-07-30T06:49:32;17.54;80.66
68556;HTU21D;55544;51.032;5.866;2023-07-30T06:52:00;17.54;81.27
68556;HTU21D;55544;51.032;5.866;2023-07-30T06:54:25;17.67;80.47
68556;HTU21D;55544;51.032;5.866;2023-07-30T06:56:51;17.60;80.83
68556;HTU21D;55544;51.032;5.866;2023-07-30T06:59:17;17.72;80.26
68556;HTU21D;55544;51.032;5.866;2023-07-30T07:01:42;17.67;80.62
68556;HTU21D;55544;51.032;5.866;2023-07-30T07:04:08;17.77;80.24
68556;HTU21D;55544;51.032;5.866;2023-07-30T07:06:34;17.75;80.45
68556;HTU21D;55544;51.032;5.866;2023-07-30T07:09:00;17.79;80.13
68556;HTU21D;55544;51.032;5.866;2023-07-30T07:11:26;17.72;80.70
68556;HTU21D;55544;51.032;5.866;2023-07-30T07:13:52;17.80;80.88
68556;HTU21D;55544;51.032;5.866;2023-07-30T07:16:17;17.89;80.78
68556;HTU21D;55544;51.032;5.866;2023-07-30T07:18:44;18.00;80.45
68556;HTU21D;55544;51.032;5.866;2023-07-30T07:21:10;18.04;80.10
68556;HTU21D;55544;51.032;5.866;2023-07-30T07:23:36;18.09;79.96
68556;HTU21D;55544;51.032;5.866;2023-07-30T07:26:02;18.08;79.57
68556;HTU21D;55544;51.032;5.866;2023-07-30T07:28:27;18.05;79.55
68556;HTU21D;55544;51.032;5.866;2023-07-30T07:30:54;18.06;79.95
68556;HTU21D;55544;51.032;5.866;2023-07-30T07:33:20;18.13;79.47
68556;HTU21D;55544;51.032;5.866;2023-07-30T07:35:46;18.10;79.75
68556;HTU21D;55544;51.032;5.866;2023-07-30T07:38:11;18.14;79.91
68556;HTU21D;55544;51.032;5.866;2023-07-30T07:40:38;18.21;79.08
68556;HTU21D;55544;51.032;5.866;2023-07-30T07:43:08;18.17;78.97
68556;HTU21D;55544;51.032;5.866;2023-07-30T07:45:34;18.14;78.82
68556;HTU21D;55544;51.032;5.866;2023-07-30T07:48:00;18.14;79.39
68556;HTU21D;55544;51.032;5.866;2023-07-30T07:50:26;18.25;79.20
68556;HTU21D;55544;51.032;5.866;2023-07-30T07:52:52;18.26;78.72
68556;HTU21D;55544;51.032;5.866;2023-07-30T07:55:17;18.23;79.35
68556;HTU21D;55544;51.032;5.866;2023-07-30T07:57:43;18.47;79.30
68556;HTU21D;55544;51.032;5.866;2023-07-30T08:00:09;18.72;79.14
68556;HTU21D;55544;51.032;5.866;2023-07-30T08:02:37;18.92;78.21
68556;HTU21D;55544;51.032;5.866;2023-07-30T08:05:03;19.03;76.76
68556;HTU21D;55544;51.032;5.866;2023-07-30T08:07:29;19.11;76.76
68556;HTU21D;55544;51.032;5.866;2023-07-30T08:09:54;19.14;75.84
68556;HTU21D;55544;51.032;5.866;2023-07-30T08:12:20;19.08;75.05
68556;HTU21D;55544;51.032;5.866;2023-07-30T08:14:46;19.02;74.82
68556;HTU21D;55544;51.032;5.866;2023-07-30T08:17:12;19.00;74.74
68556;HTU21D;55544;51.032;5.866;2023-07-30T08:19:37;18.95;73.92
68556;HTU21D;55544;51.032;5.866;2023-07-30T08:22:03;18.92;73.60
68556;HTU21D;55544;51.032;5.866;2023-07-30T08:24:29;18.95;74.70
68556;HTU21D;55544;51.032;5.866;2023-07-30T08:26:54;19.11;74.92
68556;HTU21D;55544;51.032;5.866;2023-07-30T08:29:20;19.23;74.38
68556;HTU21D;55544;51.032;5.866;2023-07-30T08:31:46;19.30;73.89
68556;HTU21D;55544;51.032;5.866;2023-07-30T08:34:12;19.48;73.28
68556;HTU21D;55544;51.032;5.866;2023-07-30T08:36:37;19.58;72.51
68556;HTU21D;55544;51.032;5.866;2023-07-30T08:39:03;19.61;72.77
68556;HTU21D;55544;51.032;5.866;2023-07-30T08:41:29;19.68;71.77
68556;HTU21D;55544;51.032;5.866;2023-07-30T08:43:55;19.73;71.84
68556;HTU21D;55544;51.032;5.866;2023-07-30T08:46:21;19.63;70.84
68556;HTU21D;55544;51.032;5.866;2023-07-30T08:48:46;19.68;71.43
68556;HTU21D;55544;51.032;5.866;2023-07-30T08:51:12;19.80;70.67
68556;HTU21D;55544;51.032;5.866;2023-07-30T08:53:39;19.99;70.75
68556;HTU21D;55544;51.032;5.866;2023-07-30T08:56:06;20.10;69.75
68556;HTU21D;55544;51.032;5.866;2023-07-30T08:58:34;20.16;69.49
68556;HTU21D;55544;51.032;5.866;2023-07-30T09:01:02;20.37;68.94
68556;HTU21D;55544;51.032;5.866;2023-07-30T09:03:37;20.58;69.98
68556;HTU21D;55544;51.032;5.866;2023-07-30T09:06:03;20.76;66.91
68556;HTU21D;55544;51.032;5.866;2023-07-30T09:08:29;20.70;65.44
68556;HTU21D;55544;51.032;5.866;2023-07-30T09:10:55;20.64;66.34
68556;HTU21D;55544;51.032;5.866;2023-07-30T09:13:21;20.68;66.12
68556;HTU21D;55544;51.032;5.866;2023-07-30T09:15:50;20.58;66.58
68556;HTU21D;55544;51.032;5.866;2023-07-30T09:18:17;20.41;64.53
68556;HTU21D;55544;51.032;5.866;2023-07-30T09:20:44;20.30;65.40
68556;HTU21D;55544;51.032;5.866;2023-07-30T09:23:10;20.21;66.26
68556;HTU21D;55544;51.032;5.866;2023-07-30T09:25:37;20.25;66.44
68556;HTU21D;55544;51.032;5.866;2023-07-30T09:28:03;20.41;66.43
68556;HTU21D;55544;51.032;5.866;2023-07-30T09:30:29;20.55;65.37
68556;HTU21D;55544;51.032;5.866;2023-07-30T09:32:56;20.60;66.15
68556;HTU21D;55544;51.032;5.866;2023-07-30T09:35:24;20.61;65.85
68556;HTU21D;55544;51.032;5.866;2023-07-30T09:38:00;20.65;64.87
68556;HTU21D;55544;51.032;5.866;2023-07-30T09:40:36;20.60;65.18
68556;HTU21D;55544;51.032;5.866;2023-07-30T09:43:05;20.55;65.11
68556;HTU21D;55544;51.032;5.866;2023-07-30T09:45:36;20.63;65.10
68556;HTU21D;55544;51.032;5.866;2023-07-30T09:48:04;20.81;64.70
68556;HTU21D;55544;51.032;5.866;2023-07-30T09:50:34;21.03;64.86
68556;HTU21D;55544;51.032;5.866;2023-07-30T09:53:01;21.15;62.86
68556;HTU21D;55544;51.032;5.866;2023-07-30T09:55:27;21.15;63.11
68556;HTU21D;55544;51.032;5.866;2023-07-30T09:57:53;21.03;61.96
68556;HTU21D;55544;51.032;5.866;2023-07-30T10:00:19;20.87;62.79
68556;HTU21D;55544;51.032;5.866;2023-07-30T10:02:46;20.77;63.18
68556;HTU21D;55544;51.032;5.866;2023-07-30T10:05:19;20.66;63.65
68556;HTU21D;55544;51.032;5.866;2023-07-30T10:08:00;20.60;64.56
68556;HTU21D;55544;51.032;5.866;2023-07-30T10:10:29;20.43;64.53
68556;HTU21D;55544;51.032;5.866;2023-07-30T10:13:06;20.28;66.01
68556;HTU21D;55544;51.032;5.866;2023-07-30T10:15:35;20.16;67.10
68556;HTU21D;55544;51.032;5.866;2023-07-30T10:18:02;20.18;66.91
68556;HTU21D;55544;51.032;5.866;2023-07-30T10:20:30;20.19;66.94
68556;HTU21D;55544;51.032;5.866;2023-07-30T10:23:00;20.28;67.32
68556;HTU21D;55544;51.032;5.866;2023-07-30T10:30:59;20.31;63.46
68556;HTU21D;55544;51.032;5.866;2023-07-30T10:36:10;20.32;64.67
68556;HTU21D;55544;51.032;5.866;2023-07-30T10:38:36;20.28;64.73
68556;HTU21D;55544;51.032;5.866;2023-07-30T10:41:08;20.33;64.40
68556;HTU21D;55544;51.032;5.866;2023-07-30T10:43:40;20.41;63.59
68556;HTU21D;55544;51.032;5.866;2023-07-30T10:46:09;20.35;63.13
68556;HTU21D;55544;51.032;5.866;2023-07-30T10:48:42;20.24;64.11
68556;HTU21D;55544;51.032;5.866;2023-07-30T10:51:13;20.09;65.12
68556;HTU21D;55544;51.032;5.866;2023-07-30T10:53:39;19.99;65.60
68556;HTU21D;55544;51.032;5.866;2023-07-30T10:56:09;19.87;66.85
68556;HTU21D;55544;51.032;5.866;2023-07-30T10:58:36;19.85;67.08
68556;HTU21D;55544;51.032;5.866;2023-07-30T11:01:06;19.82;66.30
68556;HTU21D;55544;51.032;5.866;2023-07-30T11:03:33;19.73;66.63
68556;HTU21D;55544;51.032;5.866;2023-07-30T11:06:00;19.68;65.88
68556;HTU21D;55544;51.032;5.866;2023-07-30T11:10:58;19.59;66.00
68556;HTU21D;55544;51.032;5.866;2023-07-30T11:13:25;19.48;66.48
68556;HTU21D;55544;51.032;5.866;2023-07-30T11:15:51;19.29;67.96
68556;HTU21D;55544;51.032;5.866;2023-07-30T11:18:16;19.18;69.55
68556;HTU21D;55544;51.032;5.866;2023-07-30T11:20:42;19.14;70.96
68556;HTU21D;55544;51.032;5.866;2023-07-30T11:23:22;19.23;71.69
68556;HTU21D;55544;51.032;5.866;2023-07-30T11:25:48;19.45;73.17
68556;HTU21D;55544;51.032;5.866;2023-07-30T11:28:36;19.73;72.90
68556;HTU21D;55544;51.032;5.866;2023-07-30T11:33:43;19.94;70.90
68556;HTU21D;55544;51.032;5.866;2023-07-30T11:36:12;19.88;71.00
68556;HTU21D;55544;51.032;5.866;2023-07-30T11:38:41;19.82;70.81
68556;HTU21D;55544;51.032;5.866;2023-07-30T11:41:09;19.71;71.14
68556;HTU21D;55544;51.032;5.866;2023-07-30T11:43:41;19.68;71.61
68556;HTU21D;55544;51.032;5.866;2023-07-30T11:46:14;19.75;71.51
68556;HTU21D;55544;51.032;5.866;2023-07-30T11:48:42;19.65;69.42
68556;HTU21D;55544;51.032;5.866;2023-07-30T11:51:26;19.30;69.97
68556;HTU21D;55544;51.032;5.866;2023-07-30T11:56:24;19.01;71.87
68556;HTU21D;55544;51.032;5.866;2023-07-30T11:58:54;18.92;72.77
68556;HTU21D;55544;51.032;5.866;2023-07-30T12:01:20;19.01;73.79
68556;HTU21D;55544;51.032;5.866;2023-07-30T12:03:48;19.22;73.14
68556;HTU21D;55544;51.032;5.866;2023-07-30T12:06:13;19.61;73.69
68556;HTU21D;55544;51.032;5.866;2023-07-30T12:08:39;20.02;72.61
68556;HTU21D;55544;51.032;5.866;2023-07-30T12:11:07;20.49;72.52
68556;HTU21D;55544;51.032;5.866;2023-07-30T12:13:33;20.84;70.42
68556;HTU21D;55544;51.032;5.866;2023-07-30T12:15:59;21.15;69.55
68556;HTU21D;55544;51.032;5.866;2023-07-30T12:18:26;21.47;68.81
68556;HTU21D;55544;51.032;5.866;2023-07-30T12:20:54;21.69;67.01
68556;HTU21D;55544;51.032;5.866;2023-07-30T12:23:21;21.79;66.54
68556;HTU21D;55544;51.032;5.866;2023-07-30T12:25:46;22.02;65.78
68556;HTU21D;55544;51.032;5.866;2023-07-30T12:28:13;22.21;64.90
68556;HTU21D;55544;51.032;5.866;2023-07-30T12:30:39;22.39;63.61
68556;HTU21D;55544;51.032;5.866;2023-07-30T12:33:06;22.60;62.57
68556;HTU21D;55544;51.032;5.866;2023-07-30T12:35:33;22.99;62.28
68556;HTU21D;55544;51.032;5.866;2023-07-30T12:38:00;23.15;61.18
68556;HTU21D;55544;51.032;5.866;2023-07-30T12:40:26;23.23;61.65
68556;HTU21D;55544;51.032;5.866;2023-07-30T12:42:55;23.32;61.44
68556;HTU21D;55544;51.032;5.866;2023-07-30T12:45:21;23.25;58.67
68556;HTU21D;55544;51.032;5.866;2023-07-30T12:47:47;23.18;60.49
68556;HTU21D;55544;51.032;5.866;2023-07-30T12:50:13;23.21;60.96
68556;HTU21D;55544;51.032;5.866;2023-07-30T12:52:38;23.25;58.46
68556;HTU21D;55544;51.032;5.866;2023-07-30T12:55:04;23.26;57.83
68556;HTU21D;55544;51.032;5.866;2023-07-30T12:57:30;23.41;58.12
68556;HTU21D;55544;51.032;5.866;2023-07-30T12:59:56;23.49;57.05
68556;HTU21D;55544;51.032;5.866;2023-07-30T13:02:22;23.61;55.84
68556;HTU21D;55544;51.032;5.866;2023-07-30T13:04:49;23.72;54.62
68556;HTU21D;55544;51.032;5.866;2023-07-30T13:07:15;23.82;55.72
68556;HTU21D;55544;51.032;5.866;2023-07-30T13:09:40;24.02;55.78
68556;HTU21D;55544;51.032;5.866;2023-07-30T13:12:06;24.15;55.49
68556;HTU21D;55544;51.032;5.866;2023-07-30T13:14:32;24.32;54.14
68556;HTU21D;55544;51.032;5.866;2023-07-30T13:16:58;24.45;54.17
68556;HTU21D;55544;51.032;5.866;2023-07-30T13:19:24;24.53;51.90
68556;HTU21D;55544;51.032;5.866;2023-07-30T13:21:50;24.57;51.80
68556;HTU21D;55544;51.032;5.866;2023-07-30T13:24:15;24.62;52.33
68556;HTU21D;55544;51.032;5.866;2023-07-30T13:26:41;24.55;50.34
68556;HTU21D;55544;51.032;5.866;2023-07-30T13:29:07;24.55;49.47
68556;HTU21D;55544;51.032;5.866;2023-07-30T13:31:33;24.71;51.22
68556;HTU21D;55544;51.032;5.866;2023-07-30T13:33:58;24.95;51.85
68556;HTU21D;55544;51.032;5.866;2023-07-30T13:36:24;24.84;49.89
68556;HTU21D;55544;51.032;5.866;2023-07-30T13:38:50;24.83;49.31
68556;HTU21D;55544;51.032;5.866;2023-07-30T13:41:15;24.89;48.40
68556;HTU21D;55544;51.032;5.866;2023-07-30T13:43:41;24.91;49.72
68556;HTU21D;55544;51.032;5.866;2023-07-30T13:46:07;25.07;49.66
68556;HTU21D;55544;51.032;5.866;2023-07-30T13:48:32;25.25;49.60
68556;HTU21D;55544;51.032;5.866;2023-07-30T13:50:58;25.39;49.82
68556;HTU21D;55544;51.032;5.866;2023-07-30T13:53:24;25.44;48.11
68556;HTU21D;55544;51.032;5.866;2023-07-30T13:55:49;25.36;48.07
68556;HTU21D;55544;51.032;5.866;2023-07-30T13:58:15;25.14;48.50
68556;HTU21D;55544;51.032;5.866;2023-07-30T14:00:41;25.07;49.78
68556;HTU21D;55544;51.032;5.866;2023-07-30T14:03:10;24.93;48.34
68556;HTU21D;55544;51.032;5.866;2023-07-30T14:05:38;24.58;48.08
68556;HTU21D;55544;51.032;5.866;2023-07-30T14:08:03;24.36;49.23
68556;HTU21D;55544;51.032;5.866;2023-07-30T14:10:29;24.04;48.44
68556;HTU21D;55544;51.032;5.866;2023-07-30T14:12:55;23.88;50.63
68556;HTU21D;55544;51.032;5.866;2023-07-30T14:15:20;24.02;51.12
68556;HTU21D;55544;51.032;5.866;2023-07-30T14:17:46;24.20;50.21
68556;HTU21D;55544;51.032;5.866;2023-07-30T14:20:12;24.17;47.95
68556;HTU21D;55544;51.032;5.866;2023-07-30T14:22:37;23.85;48.60
68556;HTU21D;55544;51.032;5.866;2023-07-30T14:25:04;23.70;50.28
68556;HTU21D;55544;51.032;5.866;2023-07-30T14:27:29;23.54;50.30
68556;HTU21D;55544;51.032;5.866;2023-07-30T14:29:56;23.70;49.53
68556;HTU21D;55544;51.032;5.866;2023-07-30T14:32:23;24.12;48.41
68556;HTU21D;55544;51.032;5.866;2023-07-30T14:34:49;24.46;48.95
68556;HTU21D;55544;51.032;5.866;2023-07-30T14:37:15;24.64;48.12
68556;HTU21D;55544;51.032;5.866;2023-07-30T14:39:42;24.63;47.18
68556;HTU21D;55544;51.032;5.866;2023-07-30T14:42:08;24.30;48.07
68556;HTU21D;55544;51.032;5.866;2023-07-30T14:44:34;24.33;49.91
68556;HTU21D;55544;51.032;5.866;2023-07-30T14:47:00;24.58;50.18
68556;HTU21D;55544;51.032;5.866;2023-07-30T14:49:28;24.77;48.47
68556;HTU21D;55544;51.032;5.866;2023-07-30T14:51:54;24.62;47.10
68556;HTU21D;55544;51.032;5.866;2023-07-30T14:54:20;24.46;48.50
68556;HTU21D;55544;51.032;5.866;2023-07-30T14:56:45;24.31;48.24
68556;HTU21D;55544;51.032;5.866;2023-07-30T14:59:11;24.13;49.40
68556;HTU21D;55544;51.032;5.866;2023-07-30T15:01:37;24.28;48.98
68556;HTU21D;55544;51.032;5.866;2023-07-30T15:04:03;24.42;48.20
68556;HTU21D;55544;51.032;5.866;2023-07-30T15:06:32;24.68;47.85
68556;HTU21D;55544;51.032;5.866;2023-07-30T15:08:58;24.80;46.30
68556;HTU21D;55544;51.032;5.866;2023-07-30T15:11:24;24.86;45.62
68556;HTU21D;55544;51.032;5.866;2023-07-30T15:13:50;24.95;44.45
68556;HTU21D;55544;51.032;5.866;2023-07-30T15:16:15;25.07;45.63
68556;HTU21D;55544;51.032;5.866;2023-07-30T15:18:42;25.24;44.96
68556;HTU21D;55544;51.032;5.866;2023-07-30T15:21:14;25.50;43.93
68556;HTU21D;55544;51.032;5.866;2023-07-30T15:23:43;25.44;40.34
68556;HTU21D;55544;51.032;5.866;2023-07-30T15:26:09;25.34;42.31
68556;HTU21D;55544;51.032;5.866;2023-07-30T15:28:35;25.31;41.76